sensor_id;sensor_type;location;lat;lon;timestamp;pressure;altitude;pressure_sealevel;temperature;humidity
7309;BME280;3695;53.330;9.876;2024-03-22T00:00:00;101019.00;;;13.65;57.72
7309;BME280;3695;53.330;9.876;2024-03-22T00:02:26;101020.53;;;13.51;58.13
7309;BME280;3695;53.330;9.876;2024-03-22T00:04:53;101009.53;;;13.81;57.88
7309;BME280;3695;53.330;9.876;2024-03-22T00:07:20;101012.13;;;13.76;57.61
7309;BME280;3695;53.330;9.876;2024-03-22T00:09:45;101013.16;;;13.88;57.76
7309;BME280;3695;53.330;9.876;2024-03-22T00:12:12;100995.53;;;13.85;58.08
7309;BME280;3695;53.330;9.876;2024-03-22T00:14:38;100992.69;;;13.71;57.81
7309;BME280;3695;53.330;9.876;2024-03-22T00:17:04;100989.69;;;13.49;57.93
7309;BME280;3695;53.330;9.876;2024-03-22T00:19:31;100993.63;;;13.76;58.05
7309;BME280;3695;53.330;9.876;2024-03-22T00:21:57;100986.72;;;13.88;58.05
7309;BME280;3695;53.330;9.876;2024-03-22T00:24:24;100985.03;;;13.93;57.67
7309;BME280;3695;53.330;9.876;2024-03-22T00:26:49;100971.81;;;13.93;57.63
7309;BME280;3695;53.330;9.876;2024-03-22T00:29:16;100973.34;;;13.74;57.90
7309;BME280;3695;53.330;9.876;2024-03-22T00:31:42;100963.66;;;13.74;58.12
7309;BME280;3695;53.330;9.876;2024-03-22T00:34:08;100966.44;;;13.83;57.95
7309;BME280;3695;53.330;9.876;2024-03-22T00:36:34;100951.81;;;13.47;58.24
7309;BME280;3695;53.330;9.876;2024-03-22T00:39:02;100961.91;;;13.73;58.17
7309;BME280;3695;53.330;9.876;2024-03-22T00:41:28;100956.53;;;13.67;58.28
7309;BME280;3695;53.330;9.876;2024-03-22T00:43:55;100967.34;;;13.87;58.24
7309;BME280;3695;53.330;9.876;2024-03-22T00:46:20;100957.44;;;13.71;58.02
7309;BME280;3695;53.330;9.876;2024-03-22T00:48:47;100958.53;;;13.85;58.06
7309;BME280;3695;53.330;9.876;2024-03-22T00:51:12;100953.19;;;13.82;58.20
7309;BME280;3695;53.330;9.876;2024-03-22T00:53:39;100949.84;;;13.92;58.27
7309;BME280;3695;53.330;9.876;2024-03-22T00:56:06;100955.09;;;13.91;57.93
7309;BME280;3695;53.330;9.876;2024-03-22T00:58:33;100955.97;;;13.91;58.49
7309;BME280;3695;53.330;9.876;2024-03-22T01:00:58;100950.00;;;14.04;57.99
7309;BME280;3695;53.330;9.876;2024-03-22T01:03:25;100947.22;;;13.95;58.10
7309;BME280;3695;53.330;9.876;2024-03-22T01:05:50;100948.88;;;13.85;58.16
7309;BME280;3695;53.330;9.876;2024-03-22T01:08:17;100939.38;;;14.01;58.26
7309;BME280;3695;53.330;9.876;2024-03-22T01:10:42;100933.19;;;14.01;58.30
7309;BME280;3695;53.330;9.876;2024-03-22T01:13:10;100922.31;;;13.76;58.58
7309;BME280;3695;53.330;9.876;2024-03-22T01:15:36;100922.63;;;14.01;58.17
7309;BME280;3695;53.330;9.876;2024-03-22T01:18:03;100922.53;;;13.92;58.49
7309;BME280;3695;53.330;9.876;2024-03-22T01:20:28;100907.72;;;14.07;58.26
7309;BME280;3695;53.330;9.876;2024-03-22T01:22:55;100912.03;;;13.98;58.13
7309;BME280;3695;53.330;9.876;2024-03-22T01:25:20;100911.13;;;13.97;58.36
7309;BME280;3695;53.330;9.876;2024-03-22T01:27:47;100896.13;;;13.95;58.60
7309;BME280;3695;53.330;9.876;2024-03-22T01:30:14;100899.03;;;14.17;58.22
7309;BME280;3695;53.330;9.876;2024-03-22T01:32:40;100899.84;;;14.12;58.03
7309;BME280;3695;53.330;9.876;2024-03-22T01:35:07;100878.19;;;13.69;58.50
7309;BME280;3695;53.330;9.876;2024-03-22T01:37:34;100889.00;;;13.86;58.60
7309;BME280;3695;53.330;9.876;2024-03-22T01:39:59;100888.34;;;14.07;58.33
7309;BME280;3695;53.330;9.876;2024-03-22T01:42:26;100875.84;;;13.94;58.29
7309;BME280;3695;53.330;9.876;2024-03-22T01:44:52;100864.16;;;13.73;58.27
7309;BME280;3695;53.330;9.876;2024-03-22T01:47:19;100845.53;;;13.63;58.63
7309;BME280;3695;53.330;9.876;2024-03-22T01:49:46;100845.81;;;13.84;58.92
7309;BME280;3695;53.330;9.876;2024-03-22T01:52:13;100831.69;;;13.83;58.82
7309;BME280;3695;53.330;9.876;2024-03-22T01:54:39;100823.91;;;13.96;58.82
7309;BME280;3695;53.330;9.876;2024-03-22T01:57:05;100822.91;;;13.84;58.62
7309;BME280;3695;53.330;9.876;2024-03-22T01:59:32;100817.69;;;13.89;59.07
7309;BME280;3695;53.330;9.876;2024-03-22T02:01:59;100809.81;;;13.92;58.69
7309;BME280;3695;53.330;9.876;2024-03-22T02:04:26;100812.44;;;13.92;59.02
7309;BME280;3695;53.330;9.876;2024-03-22T02:06:53;100794.00;;;13.97;58.57
7309;BME280;3695;53.330;9.876;2024-03-22T02:09:19;100778.94;;;13.90;58.44
7309;BME280;3695;53.330;9.876;2024-03-22T02:11:46;100782.63;;;14.07;58.60
7309;BME280;3695;53.330;9.876;2024-03-22T02:14:12;100772.75;;;13.86;58.62
7309;BME280;3695;53.330;9.876;2024-03-22T02:16:39;100786.19;;;14.09;58.55
7309;BME280;3695;53.330;9.876;2024-03-22T02:19:05;100776.16;;;13.77;58.67
7309;BME280;3695;53.330;9.876;2024-03-22T02:21:33;100789.63;;;14.02;59.04
7309;BME280;3695;53.330;9.876;2024-03-22T02:24:00;100780.69;;;13.89;59.08
7309;BME280;3695;53.330;9.876;2024-03-22T02:26:26;100768.41;;;13.94;58.75
7309;BME280;3695;53.330;9.876;2024-03-22T02:28:52;100763.31;;;14.14;58.60
7309;BME280;3695;53.330;9.876;2024-03-22T02:31:18;100764.13;;;14.04;58.69
7309;BME280;3695;53.330;9.876;2024-03-22T02:33:45;100755.44;;;14.20;58.86
7309;BME280;3695;53.330;9.876;2024-03-22T02:36:12;100754.50;;;14.10;58.71
7309;BME280;3695;53.330;9.876;2024-03-22T02:38:37;100755.44;;;14.20;58.64
7309;BME280;3695;53.330;9.876;2024-03-22T02:41:05;100747.41;;;14.11;58.72
7309;BME280;3695;53.330;9.876;2024-03-22T02:43:30;100750.06;;;14.08;58.62
7309;BME280;3695;53.330;9.876;2024-03-22T02:45:57;100749.31;;;14.21;58.76
7309;BME280;3695;53.330;9.876;2024-03-22T02:48:22;100745.84;;;14.31;58.72
7309;BME280;3695;53.330;9.876;2024-03-22T02:50:49;100748.25;;;14.04;58.48
7309;BME280;3695;53.330;9.876;2024-03-22T02:53:15;100747.44;;;14.12;58.76
7309;BME280;3695;53.330;9.876;2024-03-22T02:55:41;100753.66;;;14.16;59.04
7309;BME280;3695;53.330;9.876;2024-03-22T02:58:08;100753.00;;;14.41;58.68
7309;BME280;3695;53.330;9.876;2024-03-22T03:00:36;100744.84;;;14.17;58.89
7309;BME280;3695;53.330;9.876;2024-03-22T03:03:02;100744.03;;;14.25;58.72
7309;BME280;3695;53.330;9.876;2024-03-22T03:05:31;100736.13;;;14.27;58.54
7309;BME280;3695;53.330;9.876;2024-03-22T03:07:57;100738.00;;;14.37;58.31
7309;BME280;3695;53.330;9.876;2024-03-22T03:10:23;100734.59;;;14.53;58.57
7309;BME280;3695;53.330;9.876;2024-03-22T03:12:49;100727.56;;;14.55;58.22
7309;BME280;3695;53.330;9.876;2024-03-22T03:15:17;100729.13;;;14.35;58.39
7309;BME280;3695;53.330;9.876;2024-03-22T03:17:43;100732.59;;;14.30;58.74
7309;BME280;3695;53.330;9.876;2024-03-22T03:20:10;100734.38;;;14.31;58.92
7309;BME280;3695;53.330;9.876;2024-03-22T03:22:38;100734.34;;;14.26;58.79
7309;BME280;3695;53.330;9.876;2024-03-22T03:25:06;100727.53;;;14.51;58.61
7309;BME280;3695;53.330;9.876;2024-03-22T03:27:32;100727.66;;;14.68;58.42
7309;BME280;3695;53.330;9.876;2024-03-22T03:29:58;100721.50;;;14.69;58.23
7309;BME280;3695;53.330;9.876;2024-03-22T03:32:25;100702.91;;;14.58;58.15
7309;BME280;3695;53.330;9.876;2024-03-22T03:34:52;100711.69;;;14.52;58.28
7309;BME280;3695;53.330;9.876;2024-03-22T03:37:17;100709.66;;;14.21;58.72
7309;BME280;3695;53.330;9.876;2024-03-22T03:39:44;100703.69;;;14.45;58.57
7309;BME280;3695;53.330;9.876;2024-03-22T03:42:09;100706.50;;;14.72;58.40
7309;BME280;3695;53.330;9.876;2024-03-22T03:44:36;100706.25;;;14.34;58.37
7309;BME280;3695;53.330;9.876;2024-03-22T03:47:02;100690.31;;;14.28;58.85
7309;BME280;3695;53.330;9.876;2024-03-22T03:49:30;100709.81;;;14.39;59.28
7309;BME280;3695;53.330;9.876;2024-03-22T03:51:55;100694.16;;;14.70;58.87
7309;BME280;3695;53.330;9.876;2024-03-22T03:54:22;100692.06;;;14.29;59.42
7309;BME280;3695;53.330;9.876;2024-03-22T03:56:48;100685.94;;;14.35;59.20
7309;BME280;3695;53.330;9.876;2024-03-22T03:59:14;100670.28;;;14.57;59.35
7309;BME280;3695;53.330;9.876;2024-03-22T04:01:40;100671.03;;;14.41;58.77
7309;BME280;3695;53.330;9.876;2024-03-22T04:04:06;100660.63;;;14.65;59.04
7309;BME280;3695;53.330;9.876;2024-03-22T04:06:33;100663.22;;;14.59;58.57
7309;BME280;3695;53.330;9.876;2024-03-22T04:09:00;100660.53;;;14.53;58.74
7309;BME280;3695;53.330;9.876;2024-03-22T04:11:28;100654.44;;;14.65;58.88
7309;BME280;3695;53.330;9.876;2024-03-22T04:13:54;100646.63;;;14.82;58.67
7309;BME280;3695;53.330;9.876;2024-03-22T04:16:20;100635.94;;;14.66;58.79
7309;BME280;3695;53.330;9.876;2024-03-22T04:18:47;100635.94;;;14.66;58.70
7309;BME280;3695;53.330;9.876;2024-03-22T04:21:12;100635.91;;;14.57;58.72
7309;BME280;3695;53.330;9.876;2024-03-22T04:23:40;100631.50;;;14.58;58.85
7309;BME280;3695;53.330;9.876;2024-03-22T04:26:06;100627.16;;;14.74;58.82
7309;BME280;3695;53.330;9.876;2024-03-22T04:28:32;100624.47;;;14.61;58.77
7309;BME280;3695;53.330;9.876;2024-03-22T04:30:59;100621.81;;;14.58;59.12
7309;BME280;3695;53.330;9.876;2024-03-22T04:33:26;100611.28;;;14.74;58.90
7309;BME280;3695;53.330;9.876;2024-03-22T04:35:52;100613.09;;;14.81;58.71
7309;BME280;3695;53.330;9.876;2024-03-22T04:38:19;100611.25;;;14.68;58.77
7309;BME280;3695;53.330;9.876;2024-03-22T04:40:47;100618.31;;;14.69;59.01
7309;BME280;3695;53.330;9.876;2024-03-22T04:43:14;100616.56;;;14.64;58.61
7309;BME280;3695;53.330;9.876;2024-03-22T04:45:41;100604.25;;;14.74;58.74
7309;BME280;3695;53.330;9.876;2024-03-22T04:48:07;100610.44;;;14.76;58.94
7309;BME280;3695;53.330;9.876;2024-03-22T04:50:33;100593.63;;;14.66;59.17
7309;BME280;3695;53.330;9.876;2024-03-22T04:52:59;100591.84;;;14.62;58.91
7309;BME280;3695;53.330;9.876;2024-03-22T04:55:25;100588.28;;;14.60;59.13
7309;BME280;3695;53.330;9.876;2024-03-22T04:57:52;100586.56;;;14.65;58.99
7309;BME280;3695;53.330;9.876;2024-03-22T05:00:19;100583.13;;;14.91;58.83
7309;BME280;3695;53.330;9.876;2024-03-22T05:02:45;100582.28;;;14.93;58.59
7309;BME280;3695;53.330;9.876;2024-03-22T05:05:11;100578.63;;;14.67;58.77
7309;BME280;3695;53.330;9.876;2024-03-22T05:07:37;100574.25;;;14.71;59.21
7309;BME280;3695;53.330;9.876;2024-03-22T05:10:04;100566.31;;;14.74;58.83
7309;BME280;3695;53.330;9.876;2024-03-22T05:12:30;100562.75;;;14.61;59.12
7309;BME280;3695;53.330;9.876;2024-03-22T05:14:58;100565.38;;;14.58;59.13
7309;BME280;3695;53.330;9.876;2024-03-22T05:17:24;100560.22;;;15.02;58.67
7309;BME280;3695;53.330;9.876;2024-03-22T05:19:50;100552.19;;;14.69;58.99
7309;BME280;3695;53.330;9.876;2024-03-22T05:22:16;100552.16;;;14.61;59.05
7309;BME280;3695;53.330;9.876;2024-03-22T05:24:42;100551.31;;;14.68;59.17
7309;BME280;3695;53.330;9.876;2024-03-22T05:27:08;100547.81;;;14.74;59.48
7309;BME280;3695;53.330;9.876;2024-03-22T05:29:34;100557.53;;;14.81;59.29
7309;BME280;3695;53.330;9.876;2024-03-22T05:32:01;100548.72;;;14.80;59.19
7309;BME280;3695;53.330;9.876;2024-03-22T05:34:29;100553.97;;;14.73;58.99
7309;BME280;3695;53.330;9.876;2024-03-22T05:36:54;100559.31;;;14.95;58.93
7309;BME280;3695;53.330;9.876;2024-03-22T05:39:21;100554.91;;;14.87;58.80
7309;BME280;3695;53.330;9.876;2024-03-22T05:41:46;100554.88;;;14.75;59.02
7309;BME280;3695;53.330;9.876;2024-03-22T05:44:13;100559.25;;;14.68;59.42
7309;BME280;3695;53.330;9.876;2024-03-22T05:46:38;100568.09;;;14.84;59.40
7309;BME280;3695;53.330;9.876;2024-03-22T05:49:06;100561.97;;;14.86;59.25
7309;BME280;3695;53.330;9.876;2024-03-22T05:51:33;100560.97;;;14.60;59.75
7309;BME280;3695;53.330;9.876;2024-03-22T05:53:59;100550.53;;;14.93;59.43
7309;BME280;3695;53.330;9.876;2024-03-22T05:56:25;100562.81;;;14.81;59.72
7309;BME280;3695;53.330;9.876;2024-03-22T05:58:51;100559.22;;;14.57;59.61
7309;BME280;3695;53.330;9.876;2024-03-22T06:01:17;100540.81;;;14.88;59.52
7309;BME280;3695;53.330;9.876;2024-03-22T06:03:44;100557.53;;;14.79;59.38
7309;BME280;3695;53.330;9.876;2024-03-22T06:06:11;100554.94;;;14.93;59.36
7309;BME280;3695;53.330;9.876;2024-03-22T06:08:37;100548.81;;;15.12;59.45
7309;BME280;3695;53.330;9.876;2024-03-22T06:11:06;100543.53;;;15.29;58.93
7309;BME280;3695;53.330;9.876;2024-03-22T06:13:33;100540.88;;;15.27;58.84
7309;BME280;3695;53.330;9.876;2024-03-22T06:16:00;100544.41;;;15.17;59.00
7309;BME280;3695;53.330;9.876;2024-03-22T06:18:26;100530.25;;;15.03;59.13
7309;BME280;3695;53.330;9.876;2024-03-22T06:20:52;100528.50;;;15.05;59.52
7309;BME280;3695;53.330;9.876;2024-03-22T06:23:21;100524.06;;;15.19;59.47
7309;BME280;3695;53.330;9.876;2024-03-22T06:25:51;100523.22;;;15.23;59.06
7309;BME280;3695;53.330;9.876;2024-03-22T06:28:17;100524.97;;;15.26;59.20
7309;BME280;3695;53.330;9.876;2024-03-22T06:30:43;100515.25;;;15.14;59.10
7309;BME280;3695;53.330;9.876;2024-03-22T06:33:10;100513.50;;;15.28;59.25
7309;BME280;3695;53.330;9.876;2024-03-22T06:35:35;100516.19;;;15.62;59.00
7309;BME280;3695;53.330;9.876;2024-03-22T06:38:02;100511.75;;;15.33;59.07
7309;BME280;3695;53.330;9.876;2024-03-22T06:40:29;100503.81;;;15.42;59.06
7309;BME280;3695;53.330;9.876;2024-03-22T06:42:56;100486.16;;;15.23;58.94
7309;BME280;3695;53.330;9.876;2024-03-22T06:45:22;100484.38;;;15.43;59.16
7309;BME280;3695;53.330;9.876;2024-03-22T06:47:48;100493.25;;;15.59;58.64
7309;BME280;3695;53.330;9.876;2024-03-22T06:50:14;100495.88;;;15.48;58.84
7309;BME280;3695;53.330;9.876;2024-03-22T06:52:42;100486.16;;;15.44;58.99
7309;BME280;3695;53.330;9.876;2024-03-22T06:55:08;100487.97;;;15.55;59.21
7309;BME280;3695;53.330;9.876;2024-03-22T06:57:36;100488.84;;;15.55;59.02
7309;BME280;3695;53.330;9.876;2024-03-22T07:00:02;100487.91;;;15.52;59.40
7309;BME280;3695;53.330;9.876;2024-03-22T07:02:29;100489.69;;;15.40;59.48
7309;BME280;3695;53.330;9.876;2024-03-22T07:04:54;100484.41;;;15.60;59.58
7309;BME280;3695;53.330;9.876;2024-03-22T07:07:21;100486.16;;;15.69;59.28
7309;BME280;3695;53.330;9.876;2024-03-22T07:09:46;100458.78;;;15.68;59.03
7309;BME280;3695;53.330;9.876;2024-03-22T07:12:13;100459.66;;;15.75;59.01
7309;BME280;3695;53.330;9.876;2024-03-22T07:14:40;100455.25;;;15.68;59.03
7309;BME280;3695;53.330;9.876;2024-03-22T07:17:06;100448.13;;;15.86;58.88
7309;BME280;3695;53.330;9.876;2024-03-22T07:19:32;100456.97;;;15.96;58.80
7309;BME280;3695;53.330;9.876;2024-03-22T07:22:00;100459.63;;;15.90;58.79
7309;BME280;3695;53.330;9.876;2024-03-22T07:24:25;100464.09;;;15.56;59.23
7309;BME280;3695;53.330;9.876;2024-03-22T07:26:52;100467.59;;;15.73;59.35
7309;BME280;3695;53.330;9.876;2024-03-22T07:29:17;100458.72;;;15.94;59.08
7309;BME280;3695;53.330;9.876;2024-03-22T07:31:46;100455.19;;;16.03;58.94
7309;BME280;3695;53.330;9.876;2024-03-22T07:34:11;100472.88;;;15.79;59.11
7309;BME280;3695;53.330;9.876;2024-03-22T07:36:39;100458.75;;;15.80;59.26
7309;BME280;3695;53.330;9.876;2024-03-22T07:39:04;100449.94;;;15.81;59.15
7309;BME280;3695;53.330;9.876;2024-03-22T07:41:32;100439.31;;;15.81;59.37
7309;BME280;3695;53.330;9.876;2024-03-22T07:43:58;100456.16;;;15.59;59.47
7309;BME280;3695;53.330;9.876;2024-03-22T07:46:25;100436.66;;;15.89;59.20
7309;BME280;3695;53.330;9.876;2024-03-22T07:48:52;100448.06;;;16.11;58.99
7309;BME280;3695;53.330;9.876;2024-03-22T07:51:19;100457.03;;;15.61;59.31
7309;BME280;3695;53.330;9.876;2024-03-22T07:53:45;100467.59;;;15.73;59.39
7309;BME280;3695;53.330;9.876;2024-03-22T07:56:11;100461.44;;;15.77;59.64
7309;BME280;3695;53.330;9.876;2024-03-22T07:58:38;100449.94;;;15.74;59.44
7309;BME280;3695;53.330;9.876;2024-03-22T08:01:04;100456.16;;;15.71;59.68
7309;BME280;3695;53.330;9.876;2024-03-22T08:03:30;100455.19;;;15.92;59.38
7309;BME280;3695;53.330;9.876;2024-03-22T08:05:58;100449.06;;;15.63;59.92
7309;BME280;3695;53.330;9.876;2024-03-22T08:08:24;100441.91;;;15.98;59.98
7309;BME280;3695;53.330;9.876;2024-03-22T08:10:50;100435.81;;;15.84;59.93
7309;BME280;3695;53.330;9.876;2024-03-22T08:13:16;100442.91;;;15.62;60.13
7309;BME280;3695;53.330;9.876;2024-03-22T08:15:43;100448.19;;;15.56;60.72
7309;BME280;3695;53.330;9.876;2024-03-22T08:18:11;100445.53;;;15.79;60.53
7309;BME280;3695;53.330;9.876;2024-03-22T08:20:38;100434.94;;;15.79;60.64
7309;BME280;3695;53.330;9.876;2024-03-22T08:23:05;100437.59;;;15.71;60.81
7309;BME280;3695;53.330;9.876;2024-03-22T08:25:32;100434.06;;;15.48;61.10
7309;BME280;3695;53.330;9.876;2024-03-22T08:27:58;100428.81;;;15.54;61.63
7309;BME280;3695;53.330;9.876;2024-03-22T08:30:25;100436.72;;;15.59;61.44
7309;BME280;3695;53.330;9.876;2024-03-22T08:32:51;100434.97;;;15.48;61.68
7309;BME280;3695;53.330;9.876;2024-03-22T08:35:18;100437.59;;;15.33;61.54
7309;BME280;3695;53.330;9.876;2024-03-22T08:37:43;100431.44;;;15.56;61.68
7309;BME280;3695;53.330;9.876;2024-03-22T08:40:12;100425.22;;;15.75;61.68
7309;BME280;3695;53.330;9.876;2024-03-22T08:42:39;100416.41;;;15.70;61.60
7309;BME280;3695;53.330;9.876;2024-03-22T08:45:07;100418.16;;;15.71;61.32
7309;BME280;3695;53.330;9.876;2024-03-22T08:47:32;100412.91;;;15.54;61.68
7309;BME280;3695;53.330;9.876;2024-03-22T08:49:59;100411.03;;;15.91;61.34
7309;BME280;3695;53.330;9.876;2024-03-22T08:52:25;100412.88;;;15.72;61.14
7309;BME280;3695;53.330;9.876;2024-03-22T08:54:52;100415.53;;;15.62;61.44
7309;BME280;3695;53.330;9.876;2024-03-22T08:57:19;100406.69;;;15.61;61.84
7309;BME280;3695;53.330;9.876;2024-03-22T08:59:46;100408.47;;;15.56;61.86
7309;BME280;3695;53.330;9.876;2024-03-22T09:02:11;100411.91;;;15.92;61.97
7309;BME280;3695;53.330;9.876;2024-03-22T09:04:38;100406.59;;;16.01;61.33
7309;BME280;3695;53.330;9.876;2024-03-22T09:07:04;100399.63;;;15.62;61.31
7309;BME280;3695;53.330;9.876;2024-03-22T09:09:31;100401.38;;;15.78;61.39
7309;BME280;3695;53.330;9.876;2024-03-22T09:11:56;100397.84;;;15.71;61.42
7309;BME280;3695;53.330;9.876;2024-03-22T09:14:24;100404.03;;;15.69;61.21
7309;BME280;3695;53.330;9.876;2024-03-22T09:16:50;100394.34;;;15.65;61.25
7309;BME280;3695;53.330;9.876;2024-03-22T09:19:16;100386.34;;;15.83;61.37
7309;BME280;3695;53.330;9.876;2024-03-22T09:21:42;100391.63;;;15.80;61.42
7309;BME280;3695;53.330;9.876;2024-03-22T09:24:08;100385.53;;;15.49;61.55
7309;BME280;3695;53.330;9.876;2024-03-22T09:26:34;100389.84;;;15.88;61.67
7309;BME280;3695;53.330;9.876;2024-03-22T09:29:01;100396.03;;;15.79;61.29
7309;BME280;3695;53.330;9.876;2024-03-22T09:31:30;100386.34;;;15.74;61.56
7309;BME280;3695;53.330;9.876;2024-03-22T09:33:57;100380.25;;;15.54;61.82
7309;BME280;3695;53.330;9.876;2024-03-22T09:36:23;100371.25;;;15.94;61.66
7309;BME280;3695;53.330;9.876;2024-03-22T09:38:50;100371.31;;;15.82;61.66
7309;BME280;3695;53.330;9.876;2024-03-22T09:41:17;100372.25;;;15.61;61.92
7309;BME280;3695;53.330;9.876;2024-03-22T09:43:51;100367.78;;;15.83;61.85
7309;BME280;3695;53.330;9.876;2024-03-22T09:46:17;100377.47;;;15.85;61.71
7309;BME280;3695;53.330;9.876;2024-03-22T09:48:47;100371.41;;;15.55;62.37
7309;BME280;3695;53.330;9.876;2024-03-22T09:51:14;100373.13;;;15.49;62.39
7309;BME280;3695;53.330;9.876;2024-03-22T09:53:42;100371.38;;;15.52;62.62
7309;BME280;3695;53.330;9.876;2024-03-22T09:56:09;100366.03;;;15.76;62.28
7309;BME280;3695;53.330;9.876;2024-03-22T09:58:37;100359.88;;;15.72;62.38
7309;BME280;3695;53.330;9.876;2024-03-22T10:01:03;100357.09;;;15.98;61.95
7309;BME280;3695;53.330;9.876;2024-03-22T10:03:30;100353.63;;;15.88;61.87
7309;BME280;3695;53.330;9.876;2024-03-22T10:05:57;100352.63;;;16.12;61.70
7309;BME280;3695;53.330;9.876;2024-03-22T10:08:24;100347.31;;;16.12;61.39
7309;BME280;3695;53.330;9.876;2024-03-22T10:10:49;100353.66;;;15.81;61.61
7309;BME280;3695;53.330;9.876;2024-03-22T10:13:16;100340.44;;;15.69;61.69
7309;BME280;3695;53.330;9.876;2024-03-22T10:15:42;100346.53;;;15.92;61.78
7309;BME280;3695;53.330;9.876;2024-03-22T10:18:09;100339.59;;;15.62;61.52
7309;BME280;3695;53.330;9.876;2024-03-22T10:20:35;100332.41;;;15.85;61.63
7309;BME280;3695;53.330;9.876;2024-03-22T10:23:03;100343.97;;;15.72;61.57
7309;BME280;3695;53.330;9.876;2024-03-22T10:25:29;100329.81;;;15.82;61.59
7309;BME280;3695;53.330;9.876;2024-03-22T10:27:56;100350.19;;;15.45;61.71
7309;BME280;3695;53.330;9.876;2024-03-22T10:30:24;100349.19;;;15.97;61.43
7309;BME280;3695;53.330;9.876;2024-03-22T10:32:52;100342.06;;;16.06;61.37
7309;BME280;3695;53.330;9.876;2024-03-22T10:35:18;100345.75;;;15.64;61.67
7309;BME280;3695;53.330;9.876;2024-03-22T10:37:44;100353.75;;;15.41;61.98
7309;BME280;3695;53.330;9.876;2024-03-22T10:40:12;100355.53;;;15.55;62.09
7309;BME280;3695;53.330;9.876;2024-03-22T10:42:40;100352.81;;;15.64;61.67
7309;BME280;3695;53.330;9.876;2024-03-22T10:45:08;100355.47;;;15.70;61.77
7309;BME280;3695;53.330;9.876;2024-03-22T10:47:35;100350.22;;;15.55;62.12
7309;BME280;3695;53.330;9.876;2024-03-22T10:50:04;100340.50;;;15.52;62.35
7309;BME280;3695;53.330;9.876;2024-03-22T10:52:33;100340.47;;;15.61;62.13
7309;BME280;3695;53.330;9.876;2024-03-22T10:55:02;100343.97;;;15.72;61.89
7309;BME280;3695;53.330;9.876;2024-03-22T10:57:33;100339.53;;;15.85;62.28
7309;BME280;3695;53.330;9.876;2024-03-22T11:00:03;100351.81;;;16.00;62.02
7309;BME280;3695;53.330;9.876;2024-03-22T11:02:35;100344.88;;;15.52;62.31
7309;BME280;3695;53.330;9.876;2024-03-22T11:05:01;100341.19;;;16.01;62.11
7309;BME280;3695;53.330;9.876;2024-03-22T11:07:28;100337.75;;;15.82;62.04
7309;BME280;3695;53.330;9.876;2024-03-22T11:09:56;100327.16;;;15.84;62.11
7309;BME280;3695;53.330;9.876;2024-03-22T11:12:24;100331.63;;;15.64;62.06
7309;BME280;3695;53.330;9.876;2024-03-22T11:14:52;100337.88;;;15.35;62.49
7309;BME280;3695;53.330;9.876;2024-03-22T11:17:18;100327.19;;;15.69;62.42
7309;BME280;3695;53.330;9.876;2024-03-22T11:19:44;100330.66;;;15.86;62.23
7309;BME280;3695;53.330;9.876;2024-03-22T11:22:11;100328.09;;;15.69;62.07
7309;BME280;3695;53.330;9.876;2024-03-22T11:24:37;100329.84;;;15.78;62.08
7309;BME280;3695;53.330;9.876;2024-03-22T11:27:03;100319.25;;;15.67;62.07
7309;BME280;3695;53.330;9.876;2024-03-22T11:29:29;100318.31;;;15.83;62.12
7309;BME280;3695;53.330;9.876;2024-03-22T11:31:57;100321.94;;;15.64;62.10
7309;BME280;3695;53.330;9.876;2024-03-22T11:34:23;100324.63;;;15.52;62.14
7309;BME280;3695;53.330;9.876;2024-03-22T11:36:49;100316.44;;;16.08;61.76
7309;BME280;3695;53.330;9.876;2024-03-22T11:39:16;100327.16;;;15.75;61.46
7309;BME280;3695;53.330;9.876;2024-03-22T11:41:43;100311.34;;;15.64;62.02
7309;BME280;3695;53.330;9.876;2024-03-22T11:44:09;100315.72;;;15.71;62.03
7309;BME280;3695;53.330;9.876;2024-03-22T11:46:36;100314.72;;;15.92;62.06
7309;BME280;3695;53.330;9.876;2024-03-22T11:49:04;100315.75;;;15.67;61.58
7309;BME280;3695;53.330;9.876;2024-03-22T11:51:31;100313.88;;;15.90;61.73
7309;BME280;3695;53.330;9.876;2024-03-22T11:53:56;100313.91;;;15.81;61.91
7309;BME280;3695;53.330;9.876;2024-03-22T11:56:24;100302.38;;;15.90;61.62
7309;BME280;3695;53.330;9.876;2024-03-22T11:58:57;100306.91;;;15.63;61.78
7309;BME280;3695;53.330;9.876;2024-03-22T12:01:24;100312.22;;;15.56;62.10
7309;BME280;3695;53.330;9.876;2024-03-22T12:03:50;100304.25;;;15.68;62.10
7309;BME280;3695;53.330;9.876;2024-03-22T12:06:20;100293.63;;;15.78;62.24
7309;BME280;3695;53.330;9.876;2024-03-22T12:08:46;100298.13;;;15.40;62.35
7309;BME280;3695;53.330;9.876;2024-03-22T12:11:12;100287.50;;;15.58;62.31
7309;BME280;3695;53.330;9.876;2024-03-22T12:13:39;100274.31;;;15.55;62.21
7309;BME280;3695;53.330;9.876;2024-03-22T12:16:06;100279.53;;;15.63;61.95
7309;BME280;3695;53.330;9.876;2024-03-22T12:18:32;100281.16;;;15.97;61.87
7309;BME280;3695;53.330;9.876;2024-03-22T12:20:59;100270.56;;;15.94;62.06
7309;BME280;3695;53.330;9.876;2024-03-22T12:23:26;100274.78;;;16.25;61.77
7309;BME280;3695;53.330;9.876;2024-03-22T12:25:53;100276.66;;;16.04;61.69
7309;BME280;3695;53.330;9.876;2024-03-22T12:28:18;100276.66;;;16.07;61.63
7309;BME280;3695;53.330;9.876;2024-03-22T12:30:46;100277.50;;;16.13;61.40
7309;BME280;3695;53.330;9.876;2024-03-22T12:33:12;100267.03;;;15.95;61.40
7309;BME280;3695;53.330;9.876;2024-03-22T12:35:39;100264.34;;;16.00;61.13
7309;BME280;3695;53.330;9.876;2024-03-22T12:38:05;100268.88;;;15.78;61.79
7309;BME280;3695;53.330;9.876;2024-03-22T12:40:33;100281.31;;;15.65;61.49
7309;BME280;3695;53.330;9.876;2024-03-22T12:42:59;100267.06;;;15.86;61.19
7309;BME280;3695;53.330;9.876;2024-03-22T12:45:26;100269.78;;;15.77;61.54
7309;BME280;3695;53.330;9.876;2024-03-22T12:47:51;100267.19;;;15.62;61.71
7309;BME280;3695;53.330;9.876;2024-03-22T12:50:18;100271.41;;;15.98;61.35
7309;BME280;3695;53.330;9.876;2024-03-22T12:52:44;100265.22;;;16.00;61.01
7309;BME280;3695;53.330;9.876;2024-03-22T12:55:11;100275.97;;;15.73;61.27
7309;BME280;3695;53.330;9.876;2024-03-22T12:57:37;100268.84;;;15.79;61.17
7309;BME280;3695;53.330;9.876;2024-03-22T13:00:06;100269.84;;;15.57;61.59
7309;BME280;3695;53.330;9.876;2024-03-22T13:02:38;100261.94;;;15.46;61.51
7309;BME280;3695;53.330;9.876;2024-03-22T13:05:06;100262.63;;;15.88;61.56